createdAt,value
2022-08-31T00:00:30.059Z,3.13
2022-08-31T00:03:17.121Z,3.30
2022-08-31T00:05:45.576Z,3.40
2022-08-31T00:08:13.953Z,3.17
2022-08-31T00:10:46.097Z,3.30
2022-08-31T00:13:14.374Z,3.57
2022-08-31T00:15:43.715Z,3.87
2022-08-31T00:18:13.279Z,3.10
2022-08-31T00:20:41.812Z,4.17
2022-08-31T00:23:12.329Z,3.70
2022-08-31T00:25:42.710Z,3.87
2022-08-31T00:28:11.974Z,4.60
2022-08-31T00:30:41.770Z,4.30
2022-08-31T00:33:11.599Z,4.13
2022-08-31T00:35:42.720Z,4.60
2022-08-31T00:38:12.427Z,4.90
2022-08-31T00:40:44.758Z,5.50
2022-08-31T00:43:14.084Z,6.73
2022-08-31T00:45:42.295Z,6.83
2022-08-31T00:48:10.530Z,5.93
2022-08-31T00:50:40.039Z,5.50
2022-08-31T00:53:08.371Z,6.10
2022-08-31T00:55:38.124Z,6.20
2022-08-31T00:58:13.005Z,5.70
2022-08-31T01:00:43.154Z,5.90
2022-08-31T01:03:12.075Z,5.93
2022-08-31T01:05:41.811Z,5.87
2022-08-31T01:08:10.417Z,6.90
2022-08-31T01:10:43.845Z,6.07
2022-08-31T01:13:13.537Z,5.87
2022-08-31T01:15:47.381Z,6.17
2022-08-31T01:18:21.010Z,6.03
2022-08-31T01:20:59.177Z,6.03
2022-08-31T01:23:33.404Z,5.77
2022-08-31T01:26:04.087Z,6.30
2022-08-31T01:28:32.279Z,6.87
2022-08-31T01:31:17.622Z,6.03
2022-08-31T01:33:45.700Z,6.17
2022-08-31T01:36:16.227Z,6.60
2022-08-31T01:38:46.729Z,5.80
2022-08-31T01:41:20.905Z,5.80
2022-08-31T01:43:49.018Z,7.57
2022-08-31T01:46:17.439Z,7.27
2022-08-31T01:48:46.810Z,6.80
2022-08-31T01:51:16.754Z,6.80
2022-08-31T01:53:48.761Z,6.97
2022-08-31T01:56:19.962Z,6.00
2022-08-31T01:58:48.005Z,5.70
2022-08-31T02:01:37.130Z,6.60
2022-08-31T02:04:08.415Z,6.73
2022-08-31T02:06:36.871Z,6.13
2022-08-31T02:09:08.027Z,7.27
2022-08-31T02:11:37.687Z,7.00
2022-08-31T02:14:06.578Z,7.30
2022-08-31T02:16:34.658Z,6.93
2022-08-31T02:19:02.715Z,7.37
2022-08-31T02:21:30.878Z,6.70
2022-08-31T02:23:59.008Z,6.63
2022-08-31T02:26:28.551Z,7.10
2022-08-31T02:28:56.550Z,7.10
2022-08-31T02:31:24.583Z,6.40
2022-08-31T02:33:58.767Z,7.27
2022-08-31T02:36:27.261Z,6.97
2022-08-31T02:38:56.126Z,7.20
2022-08-31T02:41:25.542Z,6.93
2022-08-31T02:43:55.078Z,6.97
2022-08-31T02:46:23.285Z,7.23
2022-08-31T02:49:10.514Z,7.00
2022-08-31T02:51:40.898Z,7.70
2022-08-31T02:54:08.903Z,7.60
2022-08-31T02:56:36.886Z,7.53
2022-08-31T02:59:06.728Z,7.47
2022-08-31T03:01:36.184Z,7.13
2022-08-31T03:04:05.276Z,7.77
2022-08-31T03:06:33.285Z,7.83
2022-08-31T03:09:02.662Z,8.03
2022-08-31T03:11:30.809Z,7.80
2022-08-31T03:13:59.076Z,8.17
2022-08-31T03:16:28.651Z,7.97
2022-08-31T03:18:56.733Z,7.43
2022-08-31T03:21:24.791Z,8.60
2022-08-31T03:23:52.768Z,8.00
2022-08-31T03:26:21.747Z,7.43
2022-08-31T03:28:49.803Z,7.83
2022-08-31T03:31:39.648Z,7.90
2022-08-31T03:34:07.875Z,7.90
2022-08-31T03:36:36.813Z,8.00
2022-08-31T03:39:05.376Z,7.80
2022-08-31T03:41:33.483Z,9.07
2022-08-31T03:44:02.774Z,7.33
2022-08-31T03:46:33.698Z,7.70
2022-08-31T03:49:04.691Z,7.90
2022-08-31T03:51:34.404Z,7.27
2022-08-31T03:54:03.367Z,7.53
2022-08-31T03:56:33.759Z,7.43
2022-08-31T03:59:01.775Z,6.73
2022-08-31T04:01:48.374Z,8.03
2022-08-31T04:04:36.209Z,7.27
2022-08-31T04:07:23.145Z,7.63
2022-08-31T04:10:29.050Z,7.70
2022-08-31T04:13:29.462Z,7.17
2022-08-31T04:16:27.946Z,7.00
2022-08-31T04:19:16.053Z,7.40
2022-08-31T04:21:57.316Z,8.03
2022-08-31T04:24:25.991Z,7.00
2022-08-31T04:26:54.485Z,6.63
2022-08-31T04:29:23.638Z,6.47
2022-08-31T04:31:51.646Z,7.43
2022-08-31T04:34:19.726Z,6.27
2022-08-31T04:36:48.262Z,7.47
2022-08-31T04:39:18.845Z,6.10
2022-08-31T04:41:47.607Z,6.90
2022-08-31T04:44:19.945Z,6.90
2022-08-31T04:46:52.986Z,6.60
2022-08-31T04:49:21.020Z,6.33
2022-08-31T04:51:49.464Z,7.40
2022-08-31T04:54:18.846Z,7.07
2022-08-31T04:56:46.946Z,6.67
2022-08-31T04:59:27.247Z,6.90
2022-08-31T05:02:27.430Z,6.37
2022-08-31T05:05:04.250Z,6.70
2022-08-31T05:07:32.216Z,6.30
2022-08-31T05:10:02.318Z,6.17
2022-08-31T05:12:32.120Z,6.27
2022-08-31T05:15:00.350Z,6.67
2022-08-31T05:17:29.588Z,6.30
2022-08-31T05:19:58.023Z,6.57
2022-08-31T05:22:25.994Z,6.20
2022-08-31T05:24:55.918Z,6.57
2022-08-31T05:27:25.330Z,6.70
2022-08-31T05:29:53.279Z,6.90
2022-08-31T05:32:53.309Z,6.70
2022-08-31T05:35:21.309Z,6.10
2022-08-31T05:37:51.543Z,6.83
2022-08-31T05:40:21.088Z,6.90
2022-08-31T05:42:50.806Z,6.43
2022-08-31T05:45:19.210Z,6.33
2022-08-31T05:47:48.754Z,6.60
2022-08-31T05:50:18.583Z,6.37
2022-08-31T05:52:46.982Z,7.03
2022-08-31T05:55:15.362Z,6.90
2022-08-31T05:57:43.351Z,6.90
2022-08-31T06:00:13.675Z,7.53
2022-08-31T06:02:45.682Z,7.10
2022-08-31T06:05:15.135Z,7.53
2022-08-31T06:07:45.830Z,7.37
2022-08-31T06:10:15.608Z,7.40
2022-08-31T06:12:47.365Z,7.70
2022-08-31T06:15:19.219Z,6.23
2022-08-31T06:17:47.163Z,7.20
2022-08-31T06:20:18.042Z,6.80
2022-08-31T06:22:47.964Z,6.00
2022-08-31T06:25:25.927Z,5.90
2022-08-31T06:27:55.179Z,6.60
2022-08-31T06:30:27.260Z,6.93
2022-08-31T06:32:58.632Z,6.50
2022-08-31T06:35:40.177Z,6.17
2022-08-31T06:38:26.862Z,7.03
2022-08-31T06:41:16.504Z,6.77
2022-08-31T06:44:06.756Z,6.60
2022-08-31T06:47:15.470Z,6.57
2022-08-31T06:49:43.426Z,6.30
2022-08-31T06:52:11.447Z,6.90
2022-08-31T06:54:42.348Z,7.47
2022-08-31T06:57:28.939Z,6.90
2022-08-31T07:00:17.663Z,6.37
2022-08-31T07:02:54.733Z,7.17
2022-08-31T07:05:25.571Z,6.97
2022-08-31T07:07:54.760Z,7.00
2022-08-31T07:10:22.818Z,6.73
2022-08-31T07:12:50.827Z,7.67
2022-08-31T07:15:18.868Z,7.50
2022-08-31T07:17:48.054Z,8.00
2022-08-31T07:20:17.799Z,7.57
2022-08-31T07:22:46.079Z,7.70
2022-08-31T07:25:39.188Z,7.93
2022-08-31T07:28:07.445Z,8.07
2022-08-31T07:30:38.206Z,7.27
2022-08-31T07:33:06.726Z,7.80
2022-08-31T07:35:38.363Z,8.03
2022-08-31T07:38:43.982Z,7.83
2022-08-31T07:41:29.810Z,6.80
2022-08-31T07:43:59.525Z,6.60
2022-08-31T07:46:31.513Z,6.57
2022-08-31T07:49:00.780Z,6.87
2022-08-31T07:51:51.026Z,7.00
2022-08-31T07:54:40.942Z,7.60
2022-08-31T07:57:22.063Z,7.27
2022-08-31T07:59:55.735Z,7.13
2022-08-31T08:02:24.560Z,7.67
2022-08-31T08:04:54.088Z,6.50
2022-08-31T08:07:54.627Z,7.80
2022-08-31T08:10:55.048Z,7.87
2022-08-31T08:13:38.813Z,7.40
2022-08-31T08:16:17.660Z,8.13
2022-08-31T08:18:51.272Z,8.30
2022-08-31T08:21:24.507Z,7.80
2022-08-31T08:23:55.119Z,7.90
2022-08-31T08:26:44.378Z,7.83
2022-08-31T08:29:49.031Z,7.57
2022-08-31T08:32:22.912Z,7.33
2022-08-31T08:34:51.618Z,8.17
2022-08-31T08:37:35.677Z,9.10
2022-08-31T08:40:22.973Z,8.67
2022-08-31T08:42:51.292Z,7.87
2022-08-31T08:45:19.542Z,8.47
2022-08-31T08:47:49.948Z,8.20
2022-08-31T08:50:18.971Z,8.73
2022-08-31T08:52:48.618Z,8.50
2022-08-31T08:55:23.030Z,8.37
2022-08-31T08:57:56.194Z,7.97
2022-08-31T09:00:26.866Z,8.73
2022-08-31T09:03:01.231Z,7.87
2022-08-31T09:06:09.612Z,8.20
2022-08-31T09:09:08.390Z,8.40
2022-08-31T09:11:55.024Z,9.17
2022-08-31T09:14:36.823Z,11.70
2022-08-31T09:17:16.312Z,11.63
2022-08-31T09:20:00.508Z,10.60
2022-08-31T09:22:33.291Z,11.70
2022-08-31T09:25:04.311Z,10.50
2022-08-31T09:27:58.155Z,10.50
2022-08-31T09:30:41.215Z,9.60
2022-08-31T09:33:18.657Z,9.97
2022-08-31T09:35:48.104Z,8.80
2022-08-31T09:38:29.415Z,10.13
2022-08-31T09:40:57.765Z,9.10
2022-08-31T09:43:35.172Z,10.17
2022-08-31T09:46:08.355Z,10.03
2022-08-31T09:48:43.592Z,9.53
2022-08-31T09:51:21.499Z,9.57
2022-08-31T09:54:07.709Z,9.90
2022-08-31T09:56:57.818Z,9.80
2022-08-31T09:59:42.154Z,9.90
2022-08-31T10:02:28.946Z,9.30
2022-08-31T10:05:01.635Z,8.33
2022-08-31T10:07:43.326Z,8.97
2022-08-31T10:10:28.142Z,9.90
2022-08-31T10:13:05.354Z,8.47
2022-08-31T10:15:43.549Z,9.90
2022-08-31T10:18:16.410Z,8.27
2022-08-31T10:20:51.725Z,8.03
2022-08-31T10:23:27.217Z,8.40
2022-08-31T10:26:00.005Z,7.57
2022-08-31T10:28:36.682Z,9.00
2022-08-31T10:31:09.653Z,8.80
2022-08-31T10:34:01.114Z,8.93
2022-08-31T10:36:36.716Z,8.83
2022-08-31T10:39:13.577Z,9.23
2022-08-31T10:41:49.489Z,7.93
2022-08-31T10:44:24.189Z,9.23
2022-08-31T10:47:01.222Z,8.70
2022-08-31T10:49:29.849Z,8.90
2022-08-31T10:52:03.266Z,9.43
2022-08-31T10:54:43.067Z,9.63
2022-08-31T10:57:26.068Z,9.20
2022-08-31T11:00:03.107Z,9.40
2022-08-31T11:02:55.431Z,9.37
2022-08-31T11:05:32.588Z,9.87
2022-08-31T11:08:27.078Z,9.83
2022-08-31T11:10:57.284Z,10.73
2022-08-31T11:13:48.648Z,9.90
2022-08-31T11:16:36.724Z,11.00
2022-08-31T11:19:42.696Z,11.67
2022-08-31T11:22:37.696Z,10.77
2022-08-31T11:25:24.918Z,11.23
2022-08-31T11:28:01.448Z,11.23
2022-08-31T11:30:32.773Z,10.70
2022-08-31T11:33:05.802Z,10.13
2022-08-31T11:36:05.425Z,9.53
2022-08-31T11:38:54.602Z,10.10
2022-08-31T11:41:39.094Z,10.57
2022-08-31T11:44:08.857Z,10.70
2022-08-31T11:46:45.938Z,10.10
2022-08-31T11:49:47.074Z,10.27
2022-08-31T11:52:32.744Z,10.03
2022-08-31T11:55:08.889Z,10.17
2022-08-31T11:58:10.131Z,9.67
2022-08-31T12:00:52.474Z,10.00
2022-08-31T12:03:46.188Z,9.20
2022-08-31T12:06:48.329Z,9.23
2022-08-31T12:09:39.928Z,10.27
2022-08-31T12:12:21.700Z,10.67
2022-08-31T12:14:56.811Z,11.30
2022-08-31T12:17:33.964Z,10.30
2022-08-31T12:20:09.174Z,10.70
2022-08-31T12:23:30.229Z,10.27
2022-08-31T12:26:11.680Z,10.57
2022-08-31T12:28:56.011Z,10.47
2022-08-31T12:31:24.325Z,9.70
2022-08-31T12:33:58.979Z,9.53
2022-08-31T12:36:30.525Z,10.20
2022-08-31T12:39:10.798Z,9.17
2022-08-31T12:41:44.622Z,9.67
2022-08-31T12:44:14.096Z,10.00
2022-08-31T12:47:02.260Z,9.20
2022-08-31T12:49:59.548Z,9.53
2022-08-31T12:52:43.382Z,8.57
2022-08-31T12:55:25.551Z,8.33
2022-08-31T12:58:21.715Z,8.40
2022-08-31T13:00:49.887Z,8.40
2022-08-31T13:03:22.624Z,8.57
2022-08-31T13:06:05.676Z,8.23
2022-08-31T13:08:38.224Z,8.90
2022-08-31T13:11:22.930Z,8.40
2022-08-31T13:13:53.835Z,9.00
2022-08-31T13:16:23.442Z,8.23
2022-08-31T13:19:02.967Z,8.53
2022-08-31T13:21:31.656Z,8.33
2022-08-31T13:24:07.417Z,8.10
2022-08-31T13:26:38.540Z,8.23
2022-08-31T13:29:10.198Z,8.53
2022-08-31T13:31:51.453Z,8.50
2022-08-31T13:34:23.563Z,8.07
2022-08-31T13:36:55.095Z,8.83
2022-08-31T13:39:26.886Z,8.23
2022-08-31T13:41:58.719Z,8.20
2022-08-31T13:44:33.788Z,8.07
2022-08-31T13:47:06.056Z,7.90
2022-08-31T13:49:38.014Z,8.53
2022-08-31T13:52:14.878Z,7.80
2022-08-31T13:54:43.592Z,7.90
2022-08-31T13:57:19.666Z,8.97
2022-08-31T13:59:50.018Z,8.60
2022-08-31T14:02:36.773Z,8.70
2022-08-31T14:05:10.052Z,8.23
2022-08-31T14:07:56.882Z,8.37
2022-08-31T14:10:27.366Z,9.03
2022-08-31T14:12:57.904Z,7.23
2022-08-31T14:15:37.168Z,7.50
2022-08-31T14:18:26.732Z,8.30
2022-08-31T14:21:21.799Z,7.83
2022-08-31T14:23:53.301Z,6.70
2022-08-31T14:26:26.483Z,7.80
2022-08-31T14:28:56.871Z,7.83
2022-08-31T14:31:29.129Z,7.87
2022-08-31T14:34:20.266Z,7.27
2022-08-31T14:36:52.762Z,7.20
2022-08-31T14:39:23.128Z,6.90
2022-08-31T14:41:51.928Z,7.87
2022-08-31T14:44:22.755Z,6.90
2022-08-31T14:46:52.408Z,7.73
2022-08-31T14:49:20.666Z,8.03
2022-08-31T14:51:48.732Z,7.77
2022-08-31T14:54:17.977Z,7.47
2022-08-31T14:56:50.150Z,7.33
2022-08-31T14:59:21.190Z,7.77
2022-08-31T15:01:50.923Z,7.50
2022-08-31T15:04:21.812Z,7.57
2022-08-31T15:06:54.917Z,7.43
2022-08-31T15:09:23.006Z,7.20
2022-08-31T15:11:51.455Z,7.87
2022-08-31T15:14:19.523Z,8.27
2022-08-31T15:16:50.900Z,7.97
2022-08-31T15:19:23.132Z,8.20
2022-08-31T15:22:02.717Z,7.43
2022-08-31T15:24:31.603Z,7.63
2022-08-31T15:27:00.055Z,6.87
2022-08-31T15:29:30.451Z,8.00
2022-08-31T15:31:59.909Z,7.10
2022-08-31T15:34:31.577Z,8.13
2022-08-31T15:37:02.400Z,7.53
2022-08-31T15:39:35.044Z,7.07
2022-08-31T15:42:09.187Z,6.57
2022-08-31T15:44:37.459Z,6.90
2022-08-31T15:47:24.506Z,6.43
2022-08-31T15:49:55.963Z,6.63
2022-08-31T15:52:27.805Z,6.73
2022-08-31T15:54:57.086Z,6.37
2022-08-31T15:57:25.174Z,6.63
2022-08-31T15:59:53.209Z,5.93
2022-08-31T16:02:21.343Z,5.67
2022-08-31T16:04:51.353Z,6.20
2022-08-31T16:07:23.127Z,4.90
2022-08-31T16:09:51.245Z,5.57
2022-08-31T16:12:21.250Z,6.00
2022-08-31T16:14:51.723Z,5.30
2022-08-31T16:17:20.256Z,5.50
2022-08-31T16:19:48.720Z,5.70
2022-08-31T16:22:18.091Z,5.80
2022-08-31T16:24:50.034Z,4.50
2022-08-31T16:27:20.555Z,3.70
2022-08-31T16:29:50.919Z,4.33
2022-08-31T16:32:19.507Z,3.53
2022-08-31T16:34:47.643Z,4.00
2022-08-31T16:37:15.742Z,3.47
2022-08-31T16:39:47.069Z,2.93
2022-08-31T16:42:17.602Z,3.70
2022-08-31T16:44:48.074Z,3.90
2022-08-31T16:47:18.719Z,4.37
2022-08-31T16:49:46.819Z,4.23
2022-08-31T16:52:18.230Z,4.50
2022-08-31T16:54:48.581Z,4.60
2022-08-31T16:57:20.809Z,3.90
2022-08-31T16:59:50.517Z,4.40
2022-08-31T17:02:20.635Z,4.27
2022-08-31T17:04:52.579Z,5.27
2022-08-31T17:07:21.345Z,5.90
2022-08-31T17:09:49.719Z,6.10
2022-08-31T17:12:22.076Z,5.37
2022-08-31T17:14:52.757Z,4.50
2022-08-31T17:17:23.379Z,5.30
2022-08-31T17:19:53.202Z,5.43
2022-08-31T17:22:29.964Z,5.20
2022-08-31T17:25:03.017Z,5.17
2022-08-31T17:27:34.196Z,6.20
2022-08-31T17:30:05.906Z,5.80
2022-08-31T17:32:37.245Z,5.87
2022-08-31T17:35:08.997Z,6.20
2022-08-31T17:37:37.125Z,6.07
2022-08-31T17:40:08.128Z,6.10
2022-08-31T17:42:38.056Z,6.50
2022-08-31T17:45:06.698Z,6.50
2022-08-31T17:47:36.107Z,6.10
2022-08-31T17:50:05.156Z,6.73
2022-08-31T17:52:33.367Z,6.60
2022-08-31T17:55:01.946Z,6.67
2022-08-31T17:57:30.377Z,6.80
2022-08-31T17:59:59.894Z,7.60
2022-08-31T18:02:34.633Z,7.80
2022-08-31T18:05:03.502Z,7.47
2022-08-31T18:07:37.937Z,7.80
2022-08-31T18:10:06.875Z,7.63
2022-08-31T18:12:40.954Z,8.93
2022-08-31T18:15:12.250Z,8.67
2022-08-31T18:17:40.668Z,8.03
2022-08-31T18:20:11.887Z,8.57
2022-08-31T18:22:40.197Z,8.63
2022-08-31T18:25:09.100Z,7.57
2022-08-31T18:27:37.332Z,8.20
2022-08-31T18:30:06.497Z,8.23
2022-08-31T18:32:36.307Z,7.97
2022-08-31T18:35:10.389Z,7.37
2022-08-31T18:37:38.489Z,8.03
2022-08-31T18:40:25.395Z,7.83
2022-08-31T18:43:11.222Z,7.60
2022-08-31T18:45:39.875Z,7.70
2022-08-31T18:48:26.046Z,8.30
2022-08-31T18:50:55.271Z,8.17
2022-08-31T18:53:26.843Z,9.33
2022-08-31T18:55:58.006Z,7.80
2022-08-31T18:58:28.786Z,8.27
2022-08-31T19:00:59.131Z,9.03
2022-08-31T19:03:30.205Z,8.00
2022-08-31T19:05:58.839Z,8.10
2022-08-31T19:08:27.280Z,8.73
2022-08-31T19:10:59.001Z,8.97
2022-08-31T19:13:29.880Z,9.57
2022-08-31T19:16:02.117Z,9.50
2022-08-31T19:18:36.421Z,9.30
2022-08-31T19:21:17.426Z,9.40
2022-08-31T19:23:46.172Z,9.03
2022-08-31T19:26:21.065Z,9.17
2022-08-31T19:28:50.295Z,9.93
2022-08-31T19:31:20.860Z,10.70
2022-08-31T19:33:56.517Z,11.47
2022-08-31T19:36:27.306Z,11.50
2022-08-31T19:38:56.745Z,11.33
2022-08-31T19:41:27.330Z,11.00
2022-08-31T19:44:07.322Z,11.37
2022-08-31T19:46:37.909Z,11.43
2022-08-31T19:49:09.617Z,11.87
2022-08-31T19:51:39.363Z,12.37
2022-08-31T19:54:09.046Z,12.30
2022-08-31T19:56:39.709Z,12.83
2022-08-31T19:59:08.608Z,13.07
2022-08-31T20:01:36.842Z,12.23
2022-08-31T20:04:16.346Z,13.00
2022-08-31T20:06:46.448Z,13.47
2022-08-31T20:09:15.036Z,13.67
2022-08-31T20:11:43.897Z,14.03
2022-08-31T20:14:13.291Z,12.90
2022-08-31T20:16:43.100Z,12.90
2022-08-31T20:19:19.028Z,12.80
2022-08-31T20:21:52.993Z,13.87
2022-08-31T20:24:24.430Z,12.67
2022-08-31T20:26:55.427Z,13.17
2022-08-31T20:29:25.281Z,12.17
2022-08-31T20:31:55.327Z,13.03
2022-08-31T20:34:28.117Z,13.80
2022-08-31T20:37:01.094Z,13.37
2022-08-31T20:39:31.231Z,13.60
2022-08-31T20:42:00.461Z,14.10
2022-08-31T20:44:30.869Z,14.00
2022-08-31T20:47:18.804Z,14.17
2022-08-31T20:49:53.671Z,13.67
2022-08-31T20:52:23.675Z,13.90
2022-08-31T20:55:01.402Z,13.80
2022-08-31T20:57:31.002Z,13.10
2022-08-31T21:00:00.527Z,12.90
2022-08-31T21:02:31.153Z,13.50
2022-08-31T21:05:26.726Z,14.23
2022-08-31T21:07:50.332Z,12.20
2022-08-31T21:10:27.759Z,12.90
2022-08-31T21:13:10.973Z,12.43
2022-08-31T21:15:44.719Z,12.70
2022-08-31T21:18:15.915Z,13.30
2022-08-31T21:20:46.157Z,13.80
2022-08-31T21:23:14.263Z,13.03
2022-08-31T21:25:44.957Z,12.80
2022-08-31T21:28:15.647Z,12.97
2022-08-31T21:30:46.683Z,12.43
2022-08-31T21:33:14.782Z,13.20
2022-08-31T21:35:42.827Z,13.80
2022-08-31T21:38:13.006Z,12.47
2022-08-31T21:40:48.489Z,13.37
2022-08-31T21:43:16.713Z,12.77
2022-08-31T21:45:44.800Z,12.70
2022-08-31T21:48:13.196Z,13.10
2022-08-31T21:50:41.594Z,12.30
2022-08-31T21:53:10.047Z,13.00
2022-08-31T21:55:40.208Z,15.07
2022-08-31T21:58:09.584Z,13.13
2022-08-31T22:00:42.150Z,14.43
2022-08-31T22:03:10.496Z,13.07
2022-08-31T22:05:41.697Z,12.23
2022-08-31T22:08:09.857Z,12.80
2022-08-31T22:10:42.052Z,11.87
2022-08-31T22:13:12.232Z,12.63
2022-08-31T22:15:41.088Z,11.87
2022-08-31T22:18:58.189Z,11.63
2022-08-31T22:20:59.510Z,11.53
2022-08-31T22:23:27.749Z,11.60
2022-08-31T22:25:57.375Z,12.27
2022-08-31T22:28:27.593Z,11.87
2022-08-31T22:30:56.989Z,12.23
2022-08-31T22:33:25.371Z,12.03
2022-08-31T22:35:53.636Z,12.03
2022-08-31T22:38:21.879Z,11.67
2022-08-31T22:40:50.962Z,12.07
2022-08-31T22:43:20.544Z,11.17
2022-08-31T22:45:49.543Z,11.77
2022-08-31T22:48:18.198Z,11.63
2022-08-31T22:50:46.496Z,11.40
2022-08-31T22:53:14.876Z,11.53
2022-08-31T22:55:43.175Z,11.70
2022-08-31T22:58:12.643Z,11.30
2022-08-31T23:00:47.956Z,11.67
2022-08-31T23:03:16.690Z,11.50
2022-08-31T23:05:45.140Z,11.20
2022-08-31T23:08:14.053Z,10.90
2022-08-31T23:10:43.012Z,11.20
2022-08-31T23:13:11.206Z,10.80
2022-08-31T23:15:40.244Z,11.93
2022-08-31T23:18:10.585Z,12.33
2022-08-31T23:20:41.962Z,11.60
2022-08-31T23:23:10.533Z,11.87
2022-08-31T23:25:40.675Z,11.63
2022-08-31T23:28:09.535Z,11.20
2022-08-31T23:30:38.280Z,11.57
2022-08-31T23:33:07.490Z,10.17
2022-08-31T23:35:37.284Z,10.70
2022-08-31T23:38:05.400Z,10.33
2022-08-31T23:40:34.328Z,11.70
2022-08-31T23:43:02.526Z,11.10
2022-08-31T23:45:32.025Z,11.60
2022-08-31T23:48:00.134Z,11.60
2022-08-31T23:50:28.117Z,12.77
2022-08-31T23:52:57.575Z,11.77
2022-08-31T23:55:31.277Z,12.30
2022-08-31T23:57:59.376Z,12.63
